Time;durP1;ratioP1;P1;durP2;ratioP2;P2;SDS_P1;SDS_P2;PMS_P1;PMS_P2;Temp;Humidity;BMP_temperature;BMP_pressure;BME280_temperature;BME280_humidity;BME280_pressure;Samples;Min_cycle;Max_cycle;Signal;HPM_P1;HPM_P2
2024/01/27 00:00:40;;;;;;;8.63;8.10;;;23.80;45.40;;;;;;5034505;28;20465;-65
2024/01/27 00:03:07;;;;;;;7.50;7.30;;;23.80;45.50;;;;;;5034594;28;20511;-66
2024/01/27 00:05:34;;;;;;;7.97;7.67;;;23.80;45.50;;;;;;5032145;28;20488;-65
2024/01/27 00:08:01;;;;;;;7.70;7.40;;;23.80;45.60;;;;;;5029840;28;20473;-65
2024/01/27 00:10:29;;;;;;;7.60;7.40;;;23.80;45.50;;;;;;5033982;28;20433;-66
2024/01/27 00:12:57;;;;;;;8.17;7.90;;;23.80;45.50;;;;;;5034011;28;20460;-65
2024/01/27 00:15:24;;;;;;;8.67;8.27;;;23.80;45.60;;;;;;5029727;28;20457;-67
2024/01/27 00:17:51;;;;;;;8.00;7.80;;;23.70;45.10;;;;;;5033920;28;20503;-66
2024/01/27 00:20:18;;;;;;;8.20;7.80;;;23.50;45.40;;;;;;5033724;28;20476;-67
2024/01/27 00:22:45;;;;;;;8.50;8.00;;;23.40;45.70;;;;;;5033694;28;20479;-66
2024/01/27 00:25:12;;;;;;;8.10;7.90;;;23.30;45.90;;;;;;5029618;28;20560;-68
2024/01/27 00:27:40;;;;;;;8.00;7.73;;;23.20;46.00;;;;;;5033692;28;20479;-68
2024/01/27 00:30:08;;;;;;;8.30;7.90;;;23.10;46.10;;;;;;5033902;28;20471;-67
2024/01/27 00:32:35;;;;;;;8.67;8.27;;;23.00;46.20;;;;;;5017882;28;20979;-66
2024/01/27 00:35:02;;;;;;;9.13;8.70;;;23.00;46.40;;;;;;5029939;28;20457;-68
2024/01/27 00:37:29;;;;;;;8.20;7.73;;;22.90;46.50;;;;;;5024349;28;20979;-67
2024/01/27 00:39:56;;;;;;;7.90;7.70;;;22.80;46.50;;;;;;5033533;28;20469;-68
2024/01/27 00:42:23;;;;;;;7.77;7.43;;;22.80;46.60;;;;;;5033361;28;20995;-66
2024/01/27 00:44:52;;;;;;;7.77;7.57;;;22.80;46.70;;;;;;5029662;28;20883;-67
2024/01/27 00:47:19;;;;;;;7.73;7.50;;;22.70;46.70;;;;;;5033357;28;20469;-67
2024/01/27 00:49:46;;;;;;;8.50;8.30;;;22.70;46.80;;;;;;5033310;28;20476;-67
2024/01/27 00:52:12;;;;;;;7.87;7.57;;;22.70;46.90;;;;;;5033033;28;20505;-68
2024/01/27 00:54:39;;;;;;;8.00;7.73;;;22.60;46.80;;;;;;5029908;28;20968;-66
2024/01/27 00:57:06;;;;;;;6.63;6.53;;;22.60;46.90;;;;;;5032817;28;20469;-67
2024/01/27 00:59:33;;;;;;;7.30;7.10;;;22.60;47.00;;;;;;5032997;28;20491;-67
2024/01/27 01:02:01;;;;;;;7.13;6.83;;;22.60;47.00;;;;;;5032955;28;20473;-67
2024/01/27 01:04:28;;;;;;;8.37;7.97;;;22.50;46.90;;;;;;5029556;28;20514;-66
2024/01/27 01:06:55;;;;;;;8.40;8.10;;;22.50;46.90;;;;;;5033092;28;20842;-67
2024/01/27 01:09:22;;;;;;;7.93;7.60;;;22.50;47.00;;;;;;5032896;28;20499;-66
2024/01/27 01:11:49;;;;;;;9.00;8.53;;;22.50;47.10;;;;;;5032796;28;20476;-67
2024/01/27 01:14:16;;;;;;;8.30;8.00;;;22.50;47.20;;;;;;5029901;28;21003;-66
2024/01/27 01:16:43;;;;;;;7.80;7.60;;;22.40;47.20;;;;;;5029713;28;20438;-66
2024/01/27 01:19:11;;;;;;;8.20;7.80;;;22.40;47.20;;;;;;5032683;28;20445;-64
2024/01/27 01:21:38;;;;;;;7.20;6.90;;;22.40;47.30;;;;;;5032664;28;20927;-66
2024/01/27 01:24:05;;;;;;;8.10;7.80;;;22.40;47.30;;;;;;5030587;28;20917;-67
2024/01/27 01:26:32;;;;;;;7.47;7.23;;;22.40;47.20;;;;;;5032100;28;20465;-66
2024/01/27 01:28:59;;;;;;;8.10;7.50;;;22.30;47.20;;;;;;5032700;28;20469;-67
2024/01/27 01:31:26;;;;;;;8.30;7.90;;;22.30;47.20;;;;;;5032415;28;20469;-66
2024/01/27 01:33:52;;;;;;;8.30;8.00;;;22.30;47.20;;;;;;5032355;28;20476;-66
2024/01/27 01:36:21;;;;;;;8.00;7.70;;;22.30;47.30;;;;;;5030192;28;20480;-66
2024/01/27 01:38:48;;;;;;;8.23;7.73;;;22.30;47.40;;;;;;5032439;28;20438;-67
2024/01/27 01:41:15;;;;;;;7.90;7.70;;;22.20;47.30;;;;;;5032188;28;20960;-66
2024/01/27 01:43:42;;;;;;;7.90;7.70;;;22.20;47.30;;;;;;5032095;28;20465;-66
2024/01/27 01:46:09;;;;;;;7.30;7.07;;;22.20;47.40;;;;;;5030408;28;20572;-66
2024/01/27 01:48:35;;;;;;;7.97;7.67;;;22.20;47.40;;;;;;5032140;28;20831;-67
2024/01/27 01:51:03;;;;;;;7.37;7.17;;;22.20;47.50;;;;;;5032128;28;20475;-66
2024/01/27 01:53:32;;;;;;;7.83;7.43;;;22.10;47.40;;;;;;5032021;28;20449;-67
2024/01/27 01:55:59;;;;;;;7.50;7.20;;;22.10;47.40;;;;;;5029148;28;20489;-67
2024/01/27 01:58:26;;;;;;;7.30;7.10;;;22.10;47.50;;;;;;5031993;28;20849;-67
2024/01/27 02:00:53;;;;;;;8.23;7.90;;;22.10;47.50;;;;;;5031930;28;20441;-66
2024/01/27 02:03:20;;;;;;;7.93;7.73;;;22.10;47.60;;;;;;5031762;28;20477;-66
2024/01/27 02:05:47;;;;;;;7.47;7.27;;;22.10;47.60;;;;;;5022525;28;20504;-66
2024/01/27 02:08:14;;;;;;;7.60;7.40;;;22.10;47.70;;;;;;5028948;28;20940;-66
2024/01/27 02:10:42;;;;;;;8.03;7.63;;;22.10;47.60;;;;;;5031149;28;20855;-65
2024/01/27 02:13:18;;;;;;;7.60;7.40;;;22.00;47.50;;;;;;5031842;28;20445;-66
2024/01/27 02:15:45;;;;;;;7.73;7.43;;;22.00;47.50;;;;;;5009861;28;20940;-66
2024/01/27 02:18:12;;;;;;;7.77;7.50;;;22.00;47.50;;;;;;5031621;28;20507;-67
2024/01/27 02:20:39;;;;;;;8.20;7.30;;;22.00;47.60;;;;;;5015859;28;20491;-65
2024/01/27 02:23:06;;;;;;;8.10;7.90;;;22.00;47.70;;;;;;5026306;28;20468;-67
2024/01/27 02:25:35;;;;;;;7.20;7.00;;;22.00;47.70;;;;;;5030841;28;20492;-66
2024/01/27 02:28:03;;;;;;;8.20;7.90;;;22.00;47.70;;;;;;5031610;28;20469;-66
2024/01/27 02:30:30;;;;;;;7.47;7.27;;;22.00;47.70;;;;;;5031527;28;20448;-66
2024/01/27 02:32:58;;;;;;;7.70;7.40;;;22.00;47.70;;;;;;5027493;28;20482;-65
2024/01/27 02:35:25;;;;;;;7.93;7.73;;;21.90;47.70;;;;;;5029630;28;20499;-67
2024/01/27 02:37:52;;;;;;;8.30;7.70;;;21.90;47.60;;;;;;5031448;28;20465;-67
2024/01/27 02:40:19;;;;;;;8.03;7.83;;;21.90;47.70;;;;;;5031451;28;20480;-67
2024/01/27 02:42:47;;;;;;;8.13;7.83;;;21.90;47.70;;;;;;5029235;28;20499;-66
2024/01/27 02:45:14;;;;;;;8.43;8.03;;;21.90;47.70;;;;;;5022125;28;20517;-66
2024/01/27 02:47:41;;;;;;;7.97;7.53;;;21.90;47.70;;;;;;5029020;28;20952;-67
2024/01/27 02:50:09;;;;;;;7.60;7.40;;;21.90;47.80;;;;;;5023055;28;20919;-66
2024/01/27 02:52:36;;;;;;;6.90;6.70;;;21.80;47.70;;;;;;5031176;28;20860;-66
2024/01/27 02:55:03;;;;;;;7.30;7.10;;;21.80;47.70;;;;;;5021922;28;20877;-66
2024/01/27 02:57:30;;;;;;;8.63;8.23;;;21.80;47.70;;;;;;5031201;28;20445;-67
2024/01/27 02:59:58;;;;;;;8.70;8.40;;;21.80;47.70;;;;;;5031302;28;20473;-66
2024/01/27 03:02:25;;;;;;;8.20;7.80;;;21.80;47.60;;;;;;5031422;28;20484;-67
2024/01/27 03:04:52;;;;;;;8.17;7.97;;;21.80;47.80;;;;;;5025912;28;20504;-67
2024/01/27 03:07:18;;;;;;;7.77;7.57;;;21.80;47.70;;;;;;5031149;28;20473;-67
2024/01/27 03:09:45;;;;;;;7.20;7.00;;;21.80;47.80;;;;;;5031260;28;20469;-66
2024/01/27 03:12:12;;;;;;;7.37;7.13;;;21.80;47.80;;;;;;5031545;28;20465;-66
2024/01/27 03:14:39;;;;;;;7.30;7.00;;;21.80;47.70;;;;;;5018789;28;20457;-66
2024/01/27 03:17:08;;;;;;;7.53;7.33;;;21.80;48.30;;;;;;5031126;28;20469;-66
2024/01/27 03:19:35;;;;;;;7.40;7.20;;;21.80;47.80;;;;;;5031085;28;20480;-65
2024/01/27 03:22:02;;;;;;;7.33;6.93;;;21.80;47.80;;;;;;5034352;28;20469;-66
2024/01/27 03:24:28;;;;;;;6.90;6.80;;;21.80;47.60;;;;;;5029913;28;20517;-66
2024/01/27 03:26:55;;;;;;;7.40;7.13;;;21.80;47.70;;;;;;5034801;28;20469;-66
2024/01/27 03:29:22;;;;;;;7.97;7.60;;;21.80;47.70;;;;;;5034850;28;20805;-66
2024/01/27 03:31:49;;;;;;;7.90;7.40;;;21.80;47.60;;;;;;5032950;28;20472;-67
2024/01/27 03:34:19;;;;;;;8.57;8.17;;;21.80;47.60;;;;;;5034535;28;20463;-67
2024/01/27 03:36:49;;;;;;;9.10;8.80;;;21.80;47.80;;;;;;5034713;28;20441;-68
2024/01/27 03:39:16;;;;;;;8.00;7.70;;;21.80;47.90;;;;;;5034750;28;20473;-67
2024/01/27 03:41:43;;;;;;;7.97;7.67;;;21.70;47.90;;;;;;5033159;28;20487;-67
2024/01/27 03:44:10;;;;;;;7.30;7.10;;;21.80;48.00;;;;;;5034275;28;20476;-67
2024/01/27 03:46:38;;;;;;;8.17;7.97;;;21.70;47.80;;;;;;5034290;28;20465;-66
2024/01/27 03:49:05;;;;;;;8.37;8.07;;;21.70;47.70;;;;;;5034499;28;20511;-67
2024/01/27 03:51:34;;;;;;;8.10;7.80;;;21.70;47.70;;;;;;5032893;28;20470;-68
2024/01/27 03:54:01;;;;;;;8.77;8.47;;;21.70;47.80;;;;;;5034229;28;20469;-67
2024/01/27 03:56:28;;;;;;;8.27;7.97;;;21.80;48.00;;;;;;5034080;28;20941;-67
2024/01/27 03:58:54;;;;;;;8.43;8.03;;;21.70;48.00;;;;;;5034442;28;20449;-67
2024/01/27 04:01:22;;;;;;;7.50;7.20;;;21.70;48.00;;;;;;5032894;28;20928;-67
2024/01/27 04:03:49;;;;;;;7.83;7.57;;;21.70;47.90;;;;;;5034214;28;20446;-67
2024/01/27 04:06:16;;;;;;;7.97;7.77;;;21.70;47.80;;;;;;5034013;28;20513;-67
2024/01/27 04:08:44;;;;;;;8.20;7.90;;;21.70;47.70;;;;;;5018120;28;20832;-68
2024/01/27 04:11:20;;;;;;;8.90;8.60;;;21.70;47.90;;;;;;5034149;28;20441;-67
2024/01/27 04:13:47;;;;;;;8.90;8.70;;;21.70;47.90;;;;;;5019008;28;20436;-67
2024/01/27 04:16:14;;;;;;;7.60;7.40;;;21.70;47.90;;;;;;5033800;28;20453;-67
2024/01/27 04:18:42;;;;;;;8.70;8.20;;;21.70;47.90;;;;;;5033872;28;20472;-67
2024/01/27 04:21:09;;;;;;;8.53;8.07;;;21.70;47.80;;;;;;5027666;28;20790;-67
2024/01/27 04:23:36;;;;;;;9.30;8.77;;;21.70;47.90;;;;;;5033659;28;20477;-68
2024/01/27 04:26:06;;;;;;;8.37;7.97;;;21.70;47.90;;;;;;5033613;28;20508;-67
2024/01/27 04:28:33;;;;;;;8.30;7.90;;;21.70;47.80;;;;;;5033718;28;20523;-67
2024/01/27 04:31:00;;;;;;;8.03;7.80;;;21.70;47.80;;;;;;5027731;28;20944;-67
2024/01/27 04:33:27;;;;;;;8.33;7.87;;;21.70;47.70;;;;;;5032710;28;20912;-67
2024/01/27 04:35:54;;;;;;;7.37;7.07;;;21.70;47.80;;;;;;5033562;28;20955;-67
2024/01/27 04:38:21;;;;;;;8.10;7.60;;;21.70;47.80;;;;;;5030442;28;20562;-67
2024/01/27 04:40:48;;;;;;;8.10;7.80;;;21.70;47.90;;;;;;5033717;28;20506;-67
2024/01/27 04:43:17;;;;;;;9.10;8.70;;;21.70;47.90;;;;;;5033333;28;21116;-68
2024/01/27 04:45:44;;;;;;;9.53;9.23;;;21.70;47.80;;;;;;5017211;28;20492;-67
2024/01/27 04:48:11;;;;;;;9.10;8.80;;;21.70;47.70;;;;;;5031530;28;20476;-67
2024/01/27 04:50:38;;;;;;;8.67;8.37;;;21.70;47.70;;;;;;5032711;28;20477;-67
2024/01/27 04:53:05;;;;;;;8.53;8.30;;;21.70;47.70;;;;;;5033201;28;20476;-67
2024/01/27 04:55:33;;;;;;;9.63;9.23;;;21.60;47.60;;;;;;5033086;28;20885;-67
2024/01/27 04:58:00;;;;;;;9.10;8.90;;;21.70;47.60;;;;;;5033209;28;20449;-67
2024/01/27 05:00:28;;;;;;;9.33;8.80;;;21.70;47.60;;;;;;5030524;28;20568;-67
2024/01/27 05:02:55;;;;;;;8.90;8.50;;;21.70;47.70;;;;;;5033009;28;20469;-67
2024/01/27 05:05:22;;;;;;;9.63;9.23;;;21.70;47.70;;;;;;5032763;28;20917;-67
2024/01/27 05:07:49;;;;;;;8.60;8.30;;;21.70;47.60;;;;;;5033083;28;20476;-69
2024/01/27 05:10:17;;;;;;;8.57;8.27;;;21.70;47.70;;;;;;5032484;28;20505;-70
2024/01/27 05:12:43;;;;;;;8.67;8.47;;;21.70;47.50;;;;;;5032908;28;20836;-70
2024/01/27 05:15:11;;;;;;;9.30;9.10;;;21.80;47.40;;;;;;5032786;28;20481;-68
2024/01/27 05:17:39;;;;;;;10.20;9.70;;;21.80;47.60;;;;;;5032852;28;20452;-70
2024/01/27 05:20:08;;;;;;;7.30;7.10;;;21.80;47.80;;;;;;5030945;28;20465;-67
2024/01/27 05:22:35;;;;;;;10.10;9.63;;;21.80;47.90;;;;;;5032793;28;20214;-68
2024/01/27 05:25:09;;;;;;;9.20;9.00;;;21.90;47.70;;;;;;5032608;28;20516;-67
2024/01/27 05:27:38;;;;;;;8.83;8.53;;;22.00;47.50;;;;;;5032683;28;20516;-67
2024/01/27 05:30:06;;;;;;;9.63;9.23;;;22.10;47.30;;;;;;5022402;28;20465;-69
2024/01/27 05:32:33;;;;;;;7.70;7.05;;;22.20;47.50;;;;;;5031265;28;20462;-64
2024/01/27 05:35:02;;;;;;;9.27;8.87;;;22.30;47.40;;;;;;5032636;28;20368;-66
2024/01/27 05:37:29;;;;;;;8.30;8.00;;;22.30;47.10;;;;;;5032596;28;20528;-67
2024/01/27 05:39:56;;;;;;;8.37;8.00;;;22.40;47.00;;;;;;5030815;28;20444;-67
2024/01/27 05:42:23;;;;;;;9.30;9.00;;;22.40;46.90;;;;;;5032269;28;20469;-66
2024/01/27 05:44:50;;;;;;;8.60;8.30;;;22.40;46.90;;;;;;5054336;22;20519;-67
2024/01/27 05:47:19;;;;;;;8.50;8.13;;;22.40;47.50;;;;;;5034834;28;20438;-66
2024/01/27 05:49:48;;;;;;;9.13;8.83;;;22.50;46.90;;;;;;5022891;28;20448;-69
2024/01/27 05:52:18;;;;;;;9.47;9.07;;;22.50;46.50;;;;;;5036991;28;20476;-65
2024/01/27 05:54:46;;;;;;;8.33;8.13;;;22.40;46.60;;;;;;5025934;28;20471;-67
2024/01/27 05:57:18;;;;;;;8.90;8.50;;;22.30;46.60;;;;;;5043580;28;20939;-66
2024/01/27 05:59:44;;;;;;;8.87;8.57;;;22.30;46.50;;;;;;5040314;28;20443;-66
2024/01/27 06:02:11;;;;;;;8.37;7.90;;;22.30;46.60;;;;;;5038589;28;20446;-65
2024/01/27 06:04:38;;;;;;;9.07;8.77;;;22.30;46.50;;;;;;5041591;28;20445;-67
2024/01/27 06:07:05;;;;;;;8.40;7.97;;;22.30;46.50;;;;;;5044529;28;20894;-71
2024/01/27 06:09:34;;;;;;;8.30;8.00;;;22.30;46.40;;;;;;5043214;28;20513;-70
2024/01/27 06:12:01;;;;;;;7.70;7.50;;;22.30;46.40;;;;;;5040079;28;20441;-69
2024/01/27 06:14:28;;;;;;;8.10;7.80;;;22.30;46.30;;;;;;5038709;28;20441;-69
2024/01/27 06:16:55;;;;;;;8.50;8.10;;;22.30;46.20;;;;;;5043512;28;20476;-70
2024/01/27 06:19:22;;;;;;;7.87;7.60;;;22.30;46.20;;;;;;5043525;28;21013;-69
2024/01/27 06:21:48;;;;;;;9.30;9.00;;;22.30;46.20;;;;;;5027446;28;20468;-69
2024/01/27 06:24:16;;;;;;;8.93;8.63;;;22.30;46.10;;;;;;5043517;28;20464;-66
2024/01/27 06:26:44;;;;;;;8.17;7.90;;;22.30;46.10;;;;;;5040324;28;20485;-69
2024/01/27 06:29:11;;;;;;;9.60;9.30;;;22.30;46.10;;;;;;5039878;28;20960;-66
2024/01/27 06:31:38;;;;;;;8.77;8.57;;;22.30;46.00;;;;;;5041241;28;20445;-66
2024/01/27 06:34:05;;;;;;;9.07;8.70;;;22.20;45.90;;;;;;5043366;28;20942;-66
2024/01/27 06:36:32;;;;;;;10.53;10.03;;;22.30;45.90;;;;;;5041982;28;20928;-69
2024/01/27 06:38:59;;;;;;;9.10;8.70;;;22.30;45.90;;;;;;5039876;28;20850;-69
2024/01/27 06:41:26;;;;;;;6.70;6.50;;;22.30;45.80;;;;;;5039291;28;20457;-68
2024/01/27 06:43:54;;;;;;;8.33;8.13;;;22.30;46.10;;;;;;5043190;28;20240;-68
2024/01/27 06:46:21;;;;;;;8.80;8.40;;;22.30;45.90;;;;;;5042837;28;20519;-69
2024/01/27 06:48:48;;;;;;;8.90;8.40;;;22.30;45.70;;;;;;5039180;28;20468;-68
2024/01/27 06:51:15;;;;;;;10.37;9.47;;;22.30;45.90;;;;;;5035474;28;20468;-69
2024/01/27 06:53:41;;;;;;;11.23;10.53;;;22.40;46.50;;;;;;5042254;28;20473;-69
2024/01/27 06:56:09;;;;;;;10.60;10.00;;;22.40;47.80;;;;;;5040884;28;20480;-68
2024/01/27 06:58:36;;;;;;;11.00;10.50;;;22.40;50.90;;;;;;5047460;28;20466;-68
2024/01/27 07:01:04;;;;;;;11.77;10.20;;;22.40;49.70;;;;;;5043772;28;20531;-68
2024/01/27 07:03:31;;;;;;;10.33;9.37;;;22.40;48.70;;;;;;5044574;28;20472;-68
2024/01/27 07:06:00;;;;;;;17.97;9.87;;;22.40;48.20;;;;;;5046726;28;20518;-68
2024/01/27 07:08:27;;;;;;;10.30;9.50;;;22.40;47.80;;;;;;5046220;28;20440;-68
2024/01/27 07:10:54;;;;;;;10.63;9.53;;;22.40;47.70;;;;;;5043287;28;20487;-68
2024/01/27 07:13:21;;;;;;;10.87;10.07;;;22.40;47.60;;;;;;5043272;28;20469;-68
2024/01/27 07:15:48;;;;;;;10.17;9.43;;;22.40;47.50;;;;;;5046539;28;20480;-68
2024/01/27 07:18:17;;;;;;;11.20;10.60;;;22.40;47.30;;;;;;5046860;28;20479;-68
2024/01/27 07:20:44;;;;;;;10.13;9.60;;;22.30;47.20;;;;;;5043797;28;20448;-67
2024/01/27 07:23:11;;;;;;;10.73;9.93;;;22.30;47.10;;;;;;5043010;28;20476;-68
2024/01/27 07:25:38;;;;;;;10.90;10.10;;;22.30;47.10;;;;;;5044724;28;20516;-68
2024/01/27 07:28:05;;;;;;;10.07;9.57;;;22.30;47.00;;;;;;5046529;28;20483;-67
2024/01/27 07:30:32;;;;;;;10.50;10.20;;;22.30;47.00;;;;;;5045215;28;20470;-67
2024/01/27 07:32:59;;;;;;;11.40;10.57;;;22.30;46.90;;;;;;5043005;28;20473;-68
2024/01/27 07:35:27;;;;;;;10.33;9.90;;;22.30;46.90;;;;;;5042970;28;20493;-68
2024/01/27 07:37:54;;;;;;;11.33;10.53;;;22.20;46.70;;;;;;5046374;28;20872;-67
2024/01/27 07:40:22;;;;;;;10.10;9.27;;;22.30;46.80;;;;;;5046216;28;20442;-67
2024/01/27 07:42:49;;;;;;;10.93;9.90;;;22.20;46.70;;;;;;5042892;28;20537;-67
2024/01/27 07:45:16;;;;;;;9.93;9.53;;;22.20;46.60;;;;;;5042770;28;20595;-67
2024/01/27 07:47:43;;;;;;;11.00;10.23;;;22.20;46.50;;;;;;5044922;28;20503;-68
2024/01/27 07:50:11;;;;;;;9.33;8.90;;;22.20;46.50;;;;;;5046035;28;21015;-68
2024/01/27 07:52:39;;;;;;;11.17;10.20;;;22.20;46.40;;;;;;5044255;28;20482;-67
2024/01/27 07:55:06;;;;;;;10.40;9.70;;;22.20;46.40;;;;;;5042531;28;20515;-67
2024/01/27 07:57:33;;;;;;;11.00;10.40;;;22.20;46.40;;;;;;5043419;28;20480;-67
2024/01/27 08:00:00;;;;;;;10.27;9.80;;;22.10;46.20;;;;;;5045875;28;20475;-67
2024/01/27 08:02:27;;;;;;;10.10;9.63;;;22.20;46.30;;;;;;5045549;28;20537;-67
2024/01/27 08:04:54;;;;;;;10.20;9.70;;;22.10;46.20;;;;;;5042439;28;20472;-67
2024/01/27 08:07:21;;;;;;;11.30;10.70;;;22.10;46.20;;;;;;5041015;28;20566;-67
2024/01/27 08:09:49;;;;;;;12.03;11.30;;;22.10;46.20;;;;;;5045022;28;20464;-67
2024/01/27 08:12:16;;;;;;;11.77;11.13;;;22.10;46.10;;;;;;5045621;28;20475;-67
2024/01/27 08:14:43;;;;;;;10.93;10.43;;;22.10;46.10;;;;;;5043187;28;20452;-67
2024/01/27 08:17:10;;;;;;;11.70;11.20;;;22.00;46.00;;;;;;5042186;28;20488;-67
2024/01/27 08:19:37;;;;;;;11.80;11.10;;;22.10;46.10;;;;;;5043359;28;20437;-67
2024/01/27 08:22:04;;;;;;;10.20;9.70;;;22.00;46.00;;;;;;5045379;28;20445;-67
2024/01/27 08:24:31;;;;;;;10.73;10.43;;;22.00;45.90;;;;;;5044781;28;20472;-67
2024/01/27 08:27:00;;;;;;;11.30;10.90;;;22.00;45.90;;;;;;5041783;28;20933;-67
2024/01/27 08:29:27;;;;;;;11.10;10.60;;;22.00;45.90;;;;;;5041948;28;20544;-67
2024/01/27 08:31:54;;;;;;;10.67;10.27;;;22.00;45.90;;;;;;5029281;28;20464;-67
2024/01/27 08:34:21;;;;;;;10.70;10.10;;;22.00;45.90;;;;;;5045259;28;20912;-67
2024/01/27 08:36:47;;;;;;;12.00;11.60;;;22.00;45.90;;;;;;5042242;28;20481;-67
2024/01/27 08:39:14;;;;;;;11.70;11.23;;;22.00;45.80;;;;;;5040012;28;20518;-67
2024/01/27 08:41:41;;;;;;;11.60;10.90;;;22.00;45.80;;;;;;5046148;28;20478;-67
2024/01/27 08:44:10;;;;;;;12.30;11.43;;;22.00;45.80;;;;;;5021934;28;20484;-66
2024/01/27 08:46:36;;;;;;;11.63;11.17;;;21.90;46.70;;;;;;5042939;28;20539;-65
2024/01/27 08:49:03;;;;;;;12.53;11.83;;;21.90;47.90;;;;;;5042010;28;20437;-65
2024/01/27 08:51:30;;;;;;;12.63;11.80;;;21.80;48.00;;;;;;5038622;28;20436;-65
2024/01/27 08:53:57;;;;;;;11.17;10.67;;;21.80;48.60;;;;;;5041511;28;20480;-64
2024/01/27 08:56:24;;;;;;;11.57;11.10;;;21.80;48.60;;;;;;5042057;28;20465;-64
2024/01/27 08:58:52;;;;;;;11.40;10.70;;;21.80;48.30;;;;;;5043571;28;20468;-66
2024/01/27 09:01:20;;;;;;;11.87;11.03;;;21.80;48.30;;;;;;5040809;28;20498;-66
2024/01/27 09:03:47;;;;;;;11.07;10.67;;;21.80;48.50;;;;;;5038451;28;20457;-66
2024/01/27 09:06:14;;;;;;;11.30;10.90;;;21.70;48.50;;;;;;5037225;28;20515;-67
2024/01/27 09:08:41;;;;;;;11.90;11.40;;;21.70;48.50;;;;;;5042829;28;20943;-67
2024/01/27 09:11:09;;;;;;;11.43;10.73;;;21.70;48.50;;;;;;5041264;28;20465;-68
2024/01/27 09:13:36;;;;;;;11.00;10.50;;;21.70;48.80;;;;;;5041948;28;20441;-68
2024/01/27 09:16:03;;;;;;;11.80;11.30;;;21.80;48.60;;;;;;5044765;28;20911;-67
2024/01/27 09:18:31;;;;;;;11.87;11.37;;;21.80;48.50;;;;;;5035931;28;20441;-66
2024/01/27 09:20:58;;;;;;;11.37;10.97;;;21.80;48.50;;;;;;5044498;28;20471;-66
2024/01/27 09:23:25;;;;;;;11.07;10.73;;;21.80;48.50;;;;;;5043564;28;20957;-72
2024/01/27 09:25:52;;;;;;;11.10;10.70;;;21.80;48.50;;;;;;5044035;28;20547;-72
2024/01/27 09:28:19;;;;;;;12.00;11.63;;;21.80;48.30;;;;;;5044108;28;21085;-72
2024/01/27 09:30:46;;;;;;;11.63;11.33;;;21.80;48.30;;;;;;5042033;28;20476;-69
2024/01/27 09:33:13;;;;;;;10.70;10.30;;;21.90;48.30;;;;;;5040845;28;20473;-70
2024/01/27 09:35:41;;;;;;;11.50;11.00;;;21.90;48.20;;;;;;5042028;28;20496;-72
2024/01/27 09:38:09;;;;;;;11.00;10.70;;;21.90;48.20;;;;;;5044427;28;20970;-70
2024/01/27 09:40:36;;;;;;;11.73;11.13;;;21.90;48.10;;;;;;5043629;28;20448;-70
2024/01/27 09:43:04;;;;;;;12.00;11.43;;;22.00;48.10;;;;;;5041710;28;20860;-70
2024/01/27 09:45:31;;;;;;;10.93;10.53;;;21.90;48.10;;;;;;5040950;28;20476;-70
2024/01/27 09:48:00;;;;;;;11.00;10.60;;;21.90;48.10;;;;;;5044383;28;20471;-69
2024/01/27 09:50:28;;;;;;;10.97;10.57;;;22.00;48.10;;;;;;5044684;28;20567;-67
2024/01/27 09:52:56;;;;;;;11.07;10.77;;;22.00;48.10;;;;;;5040497;28;20481;-71
2024/01/27 09:55:23;;;;;;;12.00;11.30;;;22.00;48.10;;;;;;5040847;28;20496;-65
2024/01/27 09:57:50;;;;;;;11.30;10.90;;;22.00;48.30;;;;;;5042969;28;20477;-66
2024/01/27 10:00:18;;;;;;;11.07;10.43;;;22.00;48.10;;;;;;5045711;28;20495;-65
2024/01/27 10:02:47;;;;;;;10.87;10.27;;;22.10;48.20;;;;;;5041184;28;20437;-68
2024/01/27 10:05:14;;;;;;;11.23;10.83;;;22.00;47.90;;;;;;5035659;28;20459;-68
2024/01/27 10:07:42;;;;;;;10.90;10.50;;;22.10;47.70;;;;;;5042097;28;20480;-67
2024/01/27 10:10:11;;;;;;;11.63;11.23;;;22.00;47.40;;;;;;5041178;28;20444;-70
2024/01/27 10:12:42;;;;;;;11.53;11.03;;;22.00;47.30;;;;;;5037764;28;20438;-67
2024/01/27 10:15:20;;;;;;;11.40;11.00;;;22.10;47.30;;;;;;5043996;28;20555;-68
2024/01/27 10:17:47;;;;;;;11.40;10.90;;;22.10;47.70;;;;;;5041696;28;20436;-63
2024/01/27 10:20:15;;;;;;;11.77;11.30;;;22.10;47.20;;;;;;5028258;28;20466;-70
2024/01/27 10:22:46;;;;;;;10.80;10.50;;;22.10;47.50;;;;;;5036197;28;21075;-69
2024/01/27 10:25:18;;;;;;;11.53;11.20;;;22.20;48.00;;;;;;5029663;28;20960;-67
2024/01/27 10:27:45;;;;;;;10.57;10.27;;;22.20;47.40;;;;;;5035727;28;20480;-69
2024/01/27 10:30:18;;;;;;;11.10;10.60;;;22.20;47.40;;;;;;5039236;28;20449;-68
2024/01/27 10:32:58;;;;;;;11.57;11.10;;;22.20;47.10;;;;;;5042037;28;20449;-70
2024/01/27 10:35:25;;;;;;;11.30;10.90;;;22.30;47.10;;;;;;5042223;28;20472;-70
2024/01/27 10:37:54;;;;;;;11.03;10.73;;;22.30;46.90;;;;;;5036002;28;20876;-70
2024/01/27 10:40:24;;;;;;;11.10;10.80;;;22.20;46.90;;;;;;5037750;28;20452;-70
2024/01/27 10:43:01;;;;;;;11.77;10.90;;;22.10;46.90;;;;;;5041113;28;20483;-68
2024/01/27 10:45:29;;;;;;;11.40;11.00;;;22.20;47.10;;;;;;5038881;28;21007;-69
2024/01/27 10:48:00;;;;;;;11.53;11.07;;;22.20;47.00;;;;;;5042934;28;20536;-71
2024/01/27 10:50:28;;;;;;;11.33;10.93;;;22.20;47.00;;;;;;5043093;28;20511;-70
2024/01/27 10:52:58;;;;;;;10.63;10.33;;;22.10;46.90;;;;;;5034932;28;20439;-68
2024/01/27 10:55:27;;;;;;;10.90;10.50;;;22.20;47.60;;;;;;5043208;28;20461;-70
2024/01/27 10:57:56;;;;;;;11.10;10.47;;;22.20;47.10;;;;;;5040289;28;20469;-71
2024/01/27 11:00:25;;;;;;;10.83;10.43;;;22.20;47.30;;;;;;5039602;28;20477;-69
2024/01/27 11:02:54;;;;;;;10.97;10.47;;;22.20;47.10;;;;;;5039964;28;20439;-70
2024/01/27 11:05:22;;;;;;;11.00;10.40;;;22.20;47.00;;;;;;5040882;28;20456;-69
2024/01/27 11:07:51;;;;;;;10.40;10.07;;;22.20;46.90;;;;;;5040882;28;21017;-68
2024/01/27 11:10:18;;;;;;;10.57;10.27;;;22.20;47.50;;;;;;5039486;28;20820;-69
2024/01/27 11:12:48;;;;;;;10.57;10.20;;;22.20;46.80;;;;;;5046249;28;20467;-68
2024/01/27 11:15:15;;;;;;;10.70;10.40;;;22.20;46.70;;;;;;5039440;28;20985;-67
2024/01/27 11:17:43;;;;;;;11.30;10.80;;;22.20;46.80;;;;;;5040699;28;20503;-66
2024/01/27 11:20:12;;;;;;;10.80;10.40;;;22.20;46.70;;;;;;5042700;28;20440;-66
2024/01/27 11:22:42;;;;;;;11.40;10.67;;;22.20;46.70;;;;;;5026114;28;20441;-66
2024/01/27 11:25:16;;;;;;;11.20;10.70;;;22.20;46.70;;;;;;5036661;28;20496;-67
2024/01/27 11:27:44;;;;;;;10.70;10.13;;;22.20;46.70;;;;;;5040566;28;20507;-67
2024/01/27 11:30:28;;;;;;;10.40;10.10;;;22.20;46.70;;;;;;5042687;28;20436;-67
2024/01/27 11:32:56;;;;;;;11.20;10.70;;;22.20;46.70;;;;;;5034278;28;20447;-67
2024/01/27 11:35:23;;;;;;;10.80;10.30;;;22.20;46.70;;;;;;5042557;28;20452;-67
2024/01/27 11:37:50;;;;;;;10.43;10.10;;;22.20;46.80;;;;;;5040397;28;20946;-67
2024/01/27 11:40:17;;;;;;;9.90;9.50;;;22.30;46.80;;;;;;5039224;28;20469;-67
2024/01/27 11:42:44;;;;;;;11.03;10.47;;;22.20;46.60;;;;;;5042528;28;20472;-67
2024/01/27 11:45:11;;;;;;;10.63;10.33;;;22.30;46.70;;;;;;5059823;22;20533;-66
2024/01/27 11:47:40;;;;;;;8.23;7.93;;;22.30;46.70;;;;;;5036196;28;20883;-65
2024/01/27 11:50:08;;;;;;;11.03;10.63;;;22.30;46.70;;;;;;5046051;28;20664;-64
2024/01/27 11:52:35;;;;;;;10.47;10.17;;;22.40;46.60;;;;;;5046147;28;20444;-64
2024/01/27 11:55:02;;;;;;;10.33;9.93;;;22.40;46.40;;;;;;5034811;28;20449;-65
2024/01/27 11:57:29;;;;;;;11.10;10.77;;;22.40;46.40;;;;;;5031631;28;20481;-65
2024/01/27 11:59:58;;;;;;;10.70;10.30;;;22.30;46.40;;;;;;5034123;28;20997;-65
2024/01/27 12:02:25;;;;;;;10.97;10.47;;;22.40;46.40;;;;;;5026491;28;20469;-66
2024/01/27 12:04:55;;;;;;;11.23;10.70;;;22.40;46.50;;;;;;5034163;28;20473;-65
2024/01/27 12:07:22;;;;;;;10.90;10.60;;;22.30;46.40;;;;;;5031349;28;20516;-66
2024/01/27 12:09:50;;;;;;;10.50;10.10;;;22.30;46.50;;;;;;5033975;28;20441;-64
2024/01/27 12:12:17;;;;;;;10.13;9.83;;;22.30;46.40;;;;;;5034148;28;20441;-67
2024/01/27 12:14:47;;;;;;;10.83;10.43;;;22.30;46.40;;;;;;5034185;28;20445;-67
2024/01/27 12:17:15;;;;;;;10.87;10.57;;;22.30;46.30;;;;;;5016238;28;20485;-66
2024/01/27 12:19:47;;;;;;;11.13;10.83;;;22.30;46.30;;;;;;5032926;28;21133;-66
2024/01/27 12:22:25;;;;;;;10.70;10.30;;;22.30;46.50;;;;;;5033925;28;20433;-65
2024/01/27 12:24:52;;;;;;;10.90;10.60;;;22.20;46.50;;;;;;5033831;28;20475;-66
2024/01/27 12:27:19;;;;;;;10.83;10.43;;;22.30;46.50;;;;;;5031369;28;20524;-66
2024/01/27 12:29:48;;;;;;;10.43;10.13;;;22.20;46.50;;;;;;5033582;28;20473;-66
2024/01/27 12:32:15;;;;;;;10.37;10.07;;;22.20;46.60;;;;;;5033682;28;20475;-66
2024/01/27 12:34:42;;;;;;;11.00;10.50;;;22.20;46.60;;;;;;5033618;28;20468;-66
2024/01/27 12:37:11;;;;;;;10.93;10.53;;;22.20;46.60;;;;;;5031618;28;20496;-65
2024/01/27 12:39:43;;;;;;;11.23;10.83;;;22.20;46.70;;;;;;5033497;28;20473;-65